Terminal Aerodrome Forecast
Issued by NWS Jackson, KY

Home | Current Version | Previous Version | Text Only | Print | Product List | Glossary On
Versions: 1 2 3 4 5 6 7 8 9 10 11 12 13 14 15 16 17 18 19 20
000
FTUS43 KJKL 181100
TAFLOZ
TAF
KLOZ 181135Z 1812/1912 25007KT 6SM BR BKN010 OVC050
     FM181500 25007KT 5SM BR OVC025
     FM181800 27009KT P6SM OVC035
     FM190500 VRB04KT 1SM BR BKN010=

USA.gov is the U.S. government's official web portal to all federal, state and local government web resources and services.